Aviation Digital Data Service (ADDS)

Output produced by METARs form (1851 UTC 19 April 2019)
found at http://www.aviationweather.gov/metar/data/
 
METAR text: RJSH 190823Z 30015G25KT 9999 SCT150 BKN230 09/M06 Q1010 RMK 3AC150 A2985
Conditions at: RJSH (HACHINOHE (JMSDF, JP) observed 0823 UTC 19 April 2019
Temperature: 9.0°C (48°F)
Dewpoint: -6.0°C (21°F) [RH = 34%]
Pressure (altimeter): 29.82 inches Hg (1010.0 mb)
Winds: from the WNW (300 degrees) at 17 MPH (15 knots; 7.7 m/s)
gusting to 29 MPH (25 knots; 12.9 m/s)
Visibility: 6 or more miles (10+ km)
Ceiling: 23000 feet AGL
Clouds: scattered clouds at 15000 feet AGL
broken clouds at 23000 feet AGL
Weather: no significant weather observed at this time

METAR text: RJSH 190304Z 27019G31KT 9999 FEW020 BKN040 15/04 Q1009 RMK 1CU020 5CU040 A2980
Conditions at: RJSH (HACHINOHE (JMSDF, JP) observed 0304 UTC 19 April 2019
Temperature: 15.0°C (59°F)
Dewpoint: 4.0°C (39°F) [RH = 48%]
Pressure (altimeter): 29.79 inches Hg (1009.0 mb)
Winds: from the W (270 degrees) at 22 MPH (19 knots; 9.8 m/s)
gusting to 36 MPH (31 knots; 15.9 m/s)
Visibility: 6 or more miles (10+ km)
Ceiling: 4000 feet AGL
Clouds: few clouds at 2000 feet AGL
broken clouds at 4000 feet AGL
Weather: no significant weather observed at this time

METAR text: RJSH 190239Z 27016G26KT 240V300 9999 FEW020 SCT040 14/04 Q1009 RMK 1CU020 4CU040 A2980
Conditions at: RJSH (HACHINOHE (JMSDF, JP) observed 0239 UTC 19 April 2019
Temperature: 14.0°C (57°F)
Dewpoint: 4.0°C (39°F) [RH = 51%]
Pressure (altimeter): 29.79 inches Hg (1009.0 mb)
Winds: from the W (270 degrees) at 18 MPH (16 knots; 8.2 m/s)
gusting to 30 MPH (26 knots; 13.4 m/s)
Visibility: 6 or more miles (10+ km)
Ceiling: at least 12,000 feet AGL
Clouds: few clouds at 2000 feet AGL
scattered clouds at 4000 feet AGL
Weather: no significant weather observed at this time